createdAt,value
2018-10-15T00:00:06.119Z,11
2018-10-15T00:05:05.889Z,12
2018-10-15T00:10:06.181Z,13
2018-10-15T00:15:06.230Z,11
2018-10-15T00:20:06.313Z,10
2018-10-15T00:25:05.904Z,12
2018-10-15T00:30:06.037Z,10
2018-10-15T00:35:06.358Z,9
2018-10-15T00:40:06.166Z,11
2018-10-15T00:45:06.135Z,11
2018-10-15T00:50:05.902Z,11
2018-10-15T00:55:05.975Z,9
2018-10-15T01:00:06.243Z,11
2018-10-15T01:05:05.949Z,10
2018-10-15T01:10:06.081Z,11
2018-10-15T01:15:06.212Z,13
2018-10-15T01:20:05.842Z,9
2018-10-15T01:25:05.909Z,9
2018-10-15T01:30:06.283Z,10
2018-10-15T01:35:06.043Z,12
2018-10-15T01:40:06.295Z,13
2018-10-15T01:45:06.103Z,12
2018-10-15T01:50:06.097Z,11
2018-10-15T01:55:05.922Z,13
2018-10-15T02:00:06.102Z,12
2018-10-15T02:05:06.118Z,12
2018-10-15T02:10:06.170Z,11
2018-10-15T02:15:05.672Z,11
2018-10-15T02:20:06.118Z,13
2018-10-15T02:25:05.919Z,12
2018-10-15T02:30:06.022Z,11
2018-10-15T02:35:05.952Z,12
2018-10-15T02:40:05.783Z,12
2018-10-15T02:45:05.812Z,11
2018-10-15T02:50:06.191Z,11
2018-10-15T02:55:05.899Z,10
2018-10-15T03:00:05.839Z,10
2018-10-15T03:05:05.667Z,11
2018-10-15T03:10:06.069Z,10
2018-10-15T03:15:05.859Z,12
2018-10-15T03:20:06.080Z,12
2018-10-15T03:25:05.856Z,11
2018-10-15T03:30:05.788Z,11
2018-10-15T03:35:05.601Z,11
2018-10-15T03:40:05.722Z,11
2018-10-15T03:45:06.125Z,11
2018-10-15T03:50:05.765Z,12
2018-10-15T03:55:05.755Z,10
2018-10-15T04:00:05.641Z,12
2018-10-15T04:05:05.860Z,12
2018-10-15T04:10:05.859Z,12
2018-10-15T04:15:05.794Z,11
2018-10-15T04:20:05.667Z,11
2018-10-15T04:25:05.884Z,11
2018-10-15T04:30:05.685Z,12
2018-10-15T04:35:05.497Z,10
2018-10-15T04:40:05.875Z,12
2018-10-15T04:45:05.804Z,12
2018-10-15T04:50:05.748Z,10
2018-10-15T04:55:05.522Z,11
2018-10-15T05:00:05.759Z,12
2018-10-15T05:05:05.618Z,11
2018-10-15T05:10:05.460Z,11
2018-10-15T05:15:05.684Z,12
2018-10-15T05:20:05.613Z,11
2018-10-15T05:25:05.421Z,10
2018-10-15T05:30:05.742Z,9
2018-10-15T05:35:05.598Z,11
2018-10-15T05:40:05.459Z,11
2018-10-15T05:45:05.643Z,11
2018-10-15T05:50:05.777Z,10
2018-10-15T05:55:05.455Z,11
2018-10-15T06:00:05.875Z,11
2018-10-15T06:05:05.452Z,10
2018-10-15T06:10:05.512Z,12
2018-10-15T06:15:05.340Z,13
2018-10-15T06:20:05.478Z,11
2018-10-15T06:25:05.511Z,11
2018-10-15T06:30:05.679Z,13
2018-10-15T06:35:05.323Z,12
2018-10-15T06:40:05.347Z,10
2018-10-15T06:45:05.491Z,12
2018-10-15T06:50:05.557Z,11
2018-10-15T06:55:05.378Z,12
2018-10-15T07:00:05.287Z,11
2018-10-15T07:05:05.446Z,12
2018-10-15T07:10:05.400Z,11
2018-10-15T07:15:05.408Z,12
2018-10-15T07:20:05.627Z,12
2018-10-15T07:25:05.250Z,11
2018-10-15T07:30:05.511Z,11
2018-10-15T07:35:05.320Z,10
2018-10-15T07:40:05.475Z,14
2018-10-15T07:45:05.597Z,12
2018-10-15T07:50:05.217Z,11
2018-10-15T07:55:05.610Z,11
2018-10-15T08:00:05.195Z,12
2018-10-15T08:05:05.554Z,11
2018-10-15T08:10:05.639Z,12
2018-10-15T08:15:05.480Z,13
2018-10-15T08:20:05.457Z,11
2018-10-15T08:25:05.314Z,9
2018-10-15T08:30:05.207Z,14
2018-10-15T08:35:05.188Z,10
2018-10-15T08:40:05.337Z,10
2018-10-15T08:45:05.517Z,9
2018-10-15T08:50:05.224Z,10
2018-10-15T08:55:05.281Z,9
2018-10-15T09:00:05.487Z,8
2018-10-15T09:05:05.415Z,11
2018-10-15T09:10:05.494Z,9
2018-10-15T09:15:05.358Z,9
2018-10-15T09:20:05.179Z,10
2018-10-15T09:25:05.529Z,10
2018-10-15T09:30:05.323Z,9
2018-10-15T09:35:05.227Z,9
2018-10-15T09:40:05.327Z,8
2018-10-15T09:45:05.148Z,9
2018-10-15T09:50:05.145Z,11
2018-10-15T09:55:05.413Z,9
2018-10-15T10:00:05.309Z,9
2018-10-15T10:05:05.271Z,9
2018-10-15T10:10:05.263Z,8
2018-10-15T10:15:05.199Z,9
2018-10-15T10:20:05.367Z,9
2018-10-15T10:25:05.305Z,8
2018-10-15T10:30:05.432Z,8
2018-10-15T10:35:05.129Z,8
2018-10-15T10:40:05.165Z,9
2018-10-15T10:45:05.436Z,8
2018-10-15T10:50:05.035Z,7
2018-10-15T10:55:05.134Z,9
2018-10-15T11:00:04.988Z,9
2018-10-15T11:05:05.328Z,10
2018-10-15T11:10:05.304Z,8
2018-10-15T11:15:05.292Z,9
2018-10-15T11:20:05.353Z,9
2018-10-15T11:25:05.146Z,9
2018-10-15T11:30:05.089Z,9
2018-10-15T11:35:05.417Z,8
2018-10-15T11:40:04.980Z,8
2018-10-15T11:45:04.909Z,8
2018-10-15T11:50:05.259Z,8
2018-10-15T11:55:04.952Z,7
2018-10-15T12:00:04.946Z,9
2018-10-15T12:05:04.865Z,10
2018-10-15T12:10:05.113Z,8
2018-10-15T12:15:05.107Z,10
2018-10-15T12:20:05.076Z,9
2018-10-15T12:25:04.909Z,10
2018-10-15T12:30:05.165Z,9
2018-10-15T12:35:04.882Z,8
2018-10-15T12:40:05.040Z,9
2018-10-15T12:45:04.928Z,8
2018-10-15T12:50:05.027Z,11
2018-10-15T12:55:04.886Z,9
2018-10-15T13:00:05.010Z,10
2018-10-15T13:05:04.815Z,10
2018-10-15T13:10:04.827Z,9
2018-10-15T13:15:05.150Z,9
2018-10-15T13:20:05.075Z,10
2018-10-15T13:25:05.072Z,10
2018-10-15T13:30:05.102Z,11
2018-10-15T13:35:04.808Z,12
2018-10-15T13:40:04.743Z,13
2018-10-15T13:45:04.883Z,15
2018-10-15T13:50:05.010Z,10
2018-10-15T13:55:05.032Z,12
2018-10-15T14:00:04.754Z,12
2018-10-15T14:05:04.915Z,11
2018-10-15T14:10:04.958Z,11
2018-10-15T14:15:05.031Z,11
2018-10-15T14:20:04.712Z,12
2018-10-15T14:25:04.670Z,9
2018-10-15T14:30:04.754Z,10
2018-10-15T14:35:04.793Z,10
2018-10-15T14:40:04.764Z,11
2018-10-15T14:45:04.876Z,11
2018-10-15T14:50:04.907Z,11
2018-10-15T14:55:04.920Z,12
2018-10-15T15:00:04.922Z,10
2018-10-15T15:05:04.714Z,9
2018-10-15T15:10:04.728Z,12
2018-10-15T15:15:04.628Z,11
2018-10-15T15:20:04.872Z,12
2018-10-15T15:25:04.760Z,12
2018-10-15T15:30:04.696Z,0
2018-10-15T15:35:05.041Z,10
2018-10-15T15:40:04.683Z,13
2018-10-15T15:45:04.695Z,12
2018-10-15T15:50:04.805Z,12
2018-10-15T15:55:04.722Z,11
2018-10-15T16:00:04.849Z,12
2018-10-15T16:05:04.623Z,11
2018-10-15T16:10:04.764Z,9
2018-10-15T16:15:04.534Z,12
2018-10-15T16:20:04.564Z,12
2018-10-15T16:25:04.756Z,15
2018-10-15T16:45:12.756Z,12
2018-10-15T16:50:08.828Z,12
2018-10-15T16:55:08.630Z,13
2018-10-15T17:00:08.781Z,14
2018-10-15T17:05:08.657Z,10
2018-10-15T17:10:08.701Z,11
2018-10-15T17:15:10.405Z,13
2018-10-15T17:20:08.998Z,14
2018-10-15T17:25:09.992Z,14
2018-10-15T17:30:09.122Z,13
2018-10-15T17:35:08.878Z,13
2018-10-15T17:40:08.900Z,12
2018-10-15T17:45:09.117Z,14
2018-10-15T17:50:08.911Z,12
2018-10-15T17:55:09.525Z,8
2018-10-15T18:00:09.778Z,8
2018-10-15T18:05:09.375Z,9
2018-10-15T18:10:09.138Z,8
2018-10-15T18:15:09.630Z,7
2018-10-15T18:20:10.374Z,8
2018-10-15T18:25:09.225Z,6
2018-10-15T18:30:09.891Z,9
2018-10-15T18:35:16.555Z,5
2018-10-15T18:40:11.852Z,9
2018-10-15T18:45:08.840Z,8
2018-10-15T18:50:09.983Z,8
2018-10-15T18:55:08.811Z,9
2018-10-15T19:00:08.829Z,9
2018-10-15T19:05:09.349Z,9
2018-10-15T19:10:08.916Z,6
2018-10-15T19:15:08.723Z,9
2018-10-15T19:20:09.078Z,9
2018-10-15T19:25:08.842Z,10
2018-10-15T19:30:09.327Z,9
2018-10-15T19:35:09.243Z,9
2018-10-15T19:40:08.824Z,8
2018-10-15T19:45:09.330Z,6
2018-10-15T19:50:08.870Z,7
2018-10-15T19:55:09.762Z,9
2018-10-15T20:00:10.977Z,10
2018-10-15T20:05:08.914Z,10
2018-10-15T20:10:10.423Z,8
2018-10-15T20:15:08.388Z,10
2018-10-15T20:20:08.705Z,9
2018-10-15T20:25:08.952Z,9
2018-10-15T20:30:09.379Z,10
2018-10-15T20:35:08.973Z,9
2018-10-15T20:40:09.059Z,9
2018-10-15T20:45:09.346Z,8
2018-10-15T20:50:09.884Z,10
2018-10-15T20:55:09.407Z,10
2018-10-15T21:00:09.672Z,7
2018-10-15T21:05:08.299Z,10
2018-10-15T21:10:08.670Z,9
2018-10-15T21:15:08.751Z,9
2018-10-15T21:20:08.578Z,9
2018-10-15T21:25:08.482Z,9
2018-10-15T21:30:08.704Z,10
2018-10-15T21:35:08.285Z,9
2018-10-15T21:40:09.176Z,10
2018-10-15T21:45:08.665Z,9
2018-10-15T21:50:08.261Z,8
2018-10-15T21:55:08.545Z,10
2018-10-15T22:00:09.008Z,10
2018-10-15T22:05:08.296Z,11
2018-10-15T22:10:08.347Z,11
2018-10-15T22:15:08.501Z,9
2018-10-15T22:20:08.491Z,10
2018-10-15T22:25:08.346Z,12
2018-10-15T22:30:08.219Z,13
2018-10-15T22:35:08.359Z,14
2018-10-15T22:40:08.474Z,14
2018-10-15T22:45:08.372Z,13
2018-10-15T22:50:08.278Z,12
2018-10-15T22:55:08.292Z,12
2018-10-15T23:00:08.782Z,14
2018-10-15T23:05:08.413Z,14
2018-10-15T23:10:08.709Z,15
2018-10-15T23:15:10.758Z,16
2018-10-15T23:20:08.880Z,15
2018-10-15T23:25:08.649Z,14
2018-10-15T23:30:08.151Z,16
2018-10-15T23:35:08.462Z,14
2018-10-15T23:40:08.599Z,15
2018-10-15T23:45:08.534Z,13
2018-10-15T23:50:11.163Z,15
2018-10-15T23:55:08.478Z,13
